AirNav   Everest Fuels
 
 533 users online  

TX45 Hawkeye Hunting Club Airport
Center, Texas, USA

GOING TO CENTER?


FAA INFORMATION EFFECTIVE 02 JANUARY 2020

Location

FAA Identifier: TX45
Lat/Long: 31-46-00.5820N 097-07-46.0130W
31-46.009700N 097-07.766883W
31.7668283,-97.1294481
(estimated)
Elevation: 260 ft. / 79 m (estimated)
Variation: 07E (1985)
From city: 3 miles SE of CENTER, TX
Time zone: UTC -6 (UTC -5 during Daylight Saving Time)
Zip code: 75935

Airport Operations

Airport use: Private use. Permission required prior to landing
Activation date: 10/1959
Control tower: no
ARTCC: FORT WORTH CENTER
FSS: MONTGOMERY COUNTY FLIGHT SERVICE STATION
FOR FP FILING CALL CXO FSS 1-800-833-5602.
Attendance: UNATNDD
Wind indicator: no
Segmented circle: no

Airport Communications

WX AWOS-3 at CNW (8 nm S): 134.225 (254-867-3880)
WX ASOS at ACT (11 nm SW): PHONE 254-759-3065
WX AWOS-3 at INJ (19 nm N): 118.725 (254-582-0063)
WX AWOS-3PT at PWG (19 nm SW): 135.525 (254-848-4581)

Nearby radio navigation aids

VOR radial/distance  VOR name  Freq  Var
ACTr040/9.5WACO VORTAC115.3009E
GNLr286/31.7GROESBECK VOR/DME108.8005E

 
NDB name  Hdg/Dist  Freq  Var  ID
ROBINSON346/16.140003EROB .-. --- -...
MEXIA280/32.432904ELXY .-.. -..- -.--

Airport Services

Airframe service: NONE
Powerplant service: NONE

Runway Information

Runway E/W

Dimensions: 3200 x 50 ft. / 975 x 15 m
Surface: turf
RUNWAY E  RUNWAY W
Traffic pattern: leftleft
Obstructions: treetree

Airport Ownership and Management from official FAA records

Ownership: Privately-owned
Owner: HAWKEYE HUNTING CLUB, INC.
PO BOX 27
CENTER, TX 75935
Phone 409-598-2424
Manager: JERRY WATERS
PO BOX 27
CENTER, TX 75935
Phone 409-598-2424

Additional Remarks

HAS DOGLEG AT WEST END.
FOR CD CTC FORT WORTH ARTCC AT 817-858-7584.

Instrument Procedures

There are no published instrument procedures at TX45.

Some nearby airports with instrument procedures:

F17 - Center Municipal Airport (4 nm N)
4F2 - Panola County Airport-Sharpe Field (26 nm N)
3F3 - C E 'Rusty' Williams Airport (26 nm NE)
KOCH - Nacogdoches A L Mangham Jr. Regional Airport (32 nm W)
3R4 - Hart Airport (35 nm E)
 
Loc | Ops | Rwys | IFR | FBO | Links
Com | Nav | Svcs | Stats | Notes
Area around TX45 (Hawkeye Hunting Club Airport)
 
Road maps at: MapQuest Bing Google
 
Aerial photo
No photo
 
Sectional chart

 
Airport distance calculator
Flying to Hawkeye Hunting Club Airport? Find the distance to fly.

From to TX45

Sunrise and sunset
Times for 21-Jan-2020
 Local
(UTC-6)
 Zulu
(UTC)
Morning civil twilight06:5012:50
Sunrise07:1613:16
Sunset17:4023:40
Evening civil twilight18:0600:06

Current date and time
Zulu (UTC)  21-Jan-2020 07:01:30
Local (UTC-6)  21-Jan-2020 01:01:30
 
METAR
KF17 
4nm N 
210655Z AUTO 10SM CLR 00/M02 A3052 RMK AO2 T10051017
TAF
KSHV 
44nm N 
210520Z 2106/2206 VRB03KT P6SM SKC FM211400 09007KT P6SM SKC
KLFK 
45nm SW 
210520Z 2106/2206 00000KT P6SM SKC FM211400 10007KT P6SM SKC
KGGG 
48nm NW 
210520Z 2106/2206 00000KT P6SM SKC FM211500 11006KT P6SM SKC
KBAD 
50nm NE 
210200Z 2102/2208 03009KT 9999 SKC QNH3035INS BECMG 2202/2204 10006KT 9999 BKN150 QNH3030INS TX07/2121Z TNM02/2113Z
NOTAMs
Click for the latest NOTAMs
NOTAMs are issued by the DoD/FAA and will open in a separate window not controlled by AirNav.

 

 
 

Would you like to see your business listed on this page?

 If your business provides an interesting product or service to pilots, flight crews, aircraft, or users of the Hawkeye Hunting Club Airport, you should consider listing it here.  To start the listing process, click on the button below
 
Add a business
 

Other Pages about Hawkeye Hunting Club Airport

Update a link
 
Copyright © AirNav, LLC. All rights reserved. Privacy Policy  Contact